createdAt,value
2023-11-30T00:02:18.541Z,55.74
2023-11-30T00:04:47.294Z,56.30
2023-11-30T00:07:16.039Z,55.47
2023-11-30T00:09:45.040Z,56.28
2023-11-30T00:12:13.826Z,56.34
2023-11-30T00:14:42.890Z,56.81
2023-11-30T00:17:11.509Z,57.23
2023-11-30T00:19:40.200Z,57.95
2023-11-30T00:22:08.841Z,57.66
2023-11-30T00:24:37.466Z,57.73
2023-11-30T00:27:06.788Z,58.35
2023-11-30T00:29:35.593Z,58.49
2023-11-30T00:32:04.416Z,58.44
2023-11-30T00:34:33.102Z,58.05
2023-11-30T00:37:01.731Z,59.78
2023-11-30T00:39:30.429Z,59.54
2023-11-30T00:41:59.312Z,58.89
2023-11-30T00:44:28.105Z,59.93
2023-11-30T00:46:56.801Z,59.34
2023-11-30T00:49:25.490Z,59.11
2023-11-30T00:51:54.200Z,59.09
2023-11-30T00:54:23.003Z,59.75
2023-11-30T00:56:51.868Z,58.82
2023-11-30T00:59:19.921Z,58.85
2023-11-30T01:01:48.708Z,58.88
2023-11-30T01:04:17.507Z,59.26
2023-11-30T01:06:46.231Z,59.34
2023-11-30T01:09:14.989Z,59.70
2023-11-30T01:11:45.456Z,60.11
2023-11-30T01:14:13.818Z,60.06
2023-11-30T01:16:42.896Z,59.43
2023-11-30T01:19:11.676Z,59.51
2023-11-30T01:21:40.539Z,59.24
2023-11-30T01:24:09.428Z,59.41
2023-11-30T01:26:38.259Z,59.38
2023-11-30T01:29:07.160Z,59.36
2023-11-30T01:31:35.926Z,59.49
2023-11-30T01:34:04.634Z,59.20
2023-11-30T01:36:33.369Z,59.63
2023-11-30T01:39:02.069Z,59.65
2023-11-30T01:41:30.793Z,58.77
2023-11-30T01:43:59.673Z,59.64
2023-11-30T01:46:28.567Z,60.69
2023-11-30T01:48:57.918Z,61.61
2023-11-30T01:51:29.058Z,62.45
2023-11-30T01:53:58.761Z,62.79
2023-11-30T01:56:27.985Z,63.04
2023-11-30T01:58:57.489Z,63.89
2023-11-30T02:01:29.895Z,64.05
2023-11-30T02:03:59.906Z,64.92
2023-11-30T02:06:28.750Z,65.40
2023-11-30T02:08:57.479Z,66.01
2023-11-30T02:11:25.650Z,65.84
2023-11-30T02:13:54.490Z,66.74
2023-11-30T02:16:23.329Z,67.09
2023-11-30T02:18:52.287Z,67.30
2023-11-30T02:21:21.027Z,67.68
2023-11-30T02:23:50.493Z,67.90
2023-11-30T02:26:19.930Z,67.76
2023-11-30T02:28:48.598Z,68.23
2023-11-30T02:31:17.307Z,68.93
2023-11-30T02:33:46.111Z,68.43
2023-11-30T02:36:15.305Z,68.84
2023-11-30T02:38:44.120Z,69.80
2023-11-30T02:41:12.856Z,69.82
2023-11-30T02:43:41.524Z,69.53
2023-11-30T02:46:11.631Z,70.10
2023-11-30T02:48:40.326Z,70.01
2023-11-30T02:51:09.229Z,70.80
2023-11-30T02:53:38.535Z,71.44
2023-11-30T02:56:07.178Z,72.13
2023-11-30T02:58:35.923Z,72.03
2023-11-30T03:01:07.242Z,72.15
2023-11-30T03:03:35.988Z,72.98
2023-11-30T03:06:04.724Z,72.02
2023-11-30T03:08:33.522Z,72.47
2023-11-30T03:11:02.270Z,73.67
2023-11-30T03:13:30.978Z,73.64
2023-11-30T03:15:59.822Z,73.63
2023-11-30T03:18:28.137Z,73.46
2023-11-30T03:20:56.866Z,73.18
2023-11-30T03:23:25.541Z,73.73
2023-11-30T03:25:54.203Z,73.82
2023-11-30T03:28:22.934Z,73.80
2023-11-30T03:30:51.622Z,74.11
2023-11-30T03:33:20.284Z,74.80
2023-11-30T03:35:50.372Z,74.84
2023-11-30T03:38:19.202Z,74.61
2023-11-30T03:40:47.955Z,74.79
2023-11-30T03:43:16.771Z,74.98
2023-11-30T03:45:45.473Z,75.15
2023-11-30T03:48:14.350Z,75.78
2023-11-30T03:50:43.020Z,75.80
2023-11-30T03:53:11.777Z,76.38
2023-11-30T03:55:40.463Z,76.92
2023-11-30T03:58:09.145Z,76.14
2023-11-30T04:00:37.482Z,75.86
2023-11-30T04:03:06.223Z,76.44
2023-11-30T04:05:34.849Z,76.47
2023-11-30T04:08:03.870Z,76.45
2023-11-30T04:10:32.678Z,76.16
2023-11-30T04:13:01.485Z,75.93
2023-11-30T04:15:30.195Z,76.37
2023-11-30T04:17:59.030Z,76.24
2023-11-30T04:20:27.065Z,76.45
2023-11-30T04:22:55.780Z,76.52
2023-11-30T04:25:25.057Z,76.77
2023-11-30T04:27:53.698Z,76.46
2023-11-30T04:30:22.383Z,76.49
2023-11-30T04:32:51.097Z,76.20
2023-11-30T04:35:19.808Z,76.01
2023-11-30T04:37:48.474Z,75.95
2023-11-30T04:40:17.181Z,75.39
2023-11-30T04:42:45.815Z,75.38
2023-11-30T04:45:14.613Z,74.57
2023-11-30T04:47:43.352Z,74.84
2023-11-30T04:50:12.795Z,74.27
2023-11-30T04:52:41.109Z,74.92
2023-11-30T04:55:10.664Z,73.97
2023-11-30T04:57:39.558Z,74.59
2023-11-30T05:00:08.935Z,74.14
2023-11-30T05:02:42.634Z,74.81
2023-11-30T05:05:11.452Z,75.16
2023-11-30T05:07:40.180Z,75.33
2023-11-30T05:10:09.372Z,75.33
2023-11-30T05:12:38.617Z,75.13
2023-11-30T05:15:08.614Z,75.51
2023-11-30T05:17:37.374Z,76.16
2023-11-30T05:20:06.969Z,75.44
2023-11-30T05:22:35.693Z,75.38
2023-11-30T05:25:05.017Z,75.53
2023-11-30T05:27:33.724Z,76.00
2023-11-30T05:30:02.544Z,75.64
2023-11-30T05:32:31.258Z,76.38
2023-11-30T05:34:59.900Z,76.29
2023-11-30T05:37:28.618Z,76.18
2023-11-30T05:39:57.261Z,76.50
2023-11-30T05:42:26.427Z,76.28
2023-11-30T05:44:55.070Z,76.54
2023-11-30T05:47:24.039Z,77.15
2023-11-30T05:49:52.693Z,77.24
2023-11-30T05:52:20.996Z,77.88
2023-11-30T05:54:49.668Z,77.57
2023-11-30T05:57:18.403Z,77.69
2023-11-30T05:59:47.235Z,77.76
2023-11-30T06:02:18.251Z,78.29
2023-11-30T06:04:54.385Z,77.69
2023-11-30T06:07:25.861Z,78.00
2023-11-30T06:09:54.264Z,77.72
2023-11-30T06:12:23.119Z,78.08
2023-11-30T06:14:51.819Z,78.38
2023-11-30T06:17:20.562Z,77.83
2023-11-30T06:19:49.223Z,78.34
2023-11-30T06:22:17.901Z,78.87
2023-11-30T06:24:46.637Z,79.47
2023-11-30T06:27:15.285Z,79.54
2023-11-30T06:29:43.938Z,79.01
2023-11-30T06:32:12.722Z,79.92
2023-11-30T06:34:41.057Z,79.85
2023-11-30T06:37:09.687Z,79.65
2023-11-30T06:39:38.427Z,79.57
2023-11-30T06:42:07.270Z,79.74
2023-11-30T06:44:35.543Z,80.35
2023-11-30T06:47:04.355Z,80.75
2023-11-30T06:49:33.466Z,80.94
2023-11-30T06:52:05.066Z,80.24
2023-11-30T06:54:35.148Z,81.36
2023-11-30T06:57:03.941Z,81.00
2023-11-30T06:59:33.830Z,80.59
2023-11-30T07:02:02.921Z,81.41
2023-11-30T07:04:31.187Z,81.50
2023-11-30T07:06:59.926Z,82.85
2023-11-30T07:09:28.052Z,82.15
2023-11-30T07:11:56.727Z,83.19
2023-11-30T07:14:25.663Z,83.25
2023-11-30T07:16:54.324Z,83.44
2023-11-30T07:19:23.019Z,84.26
2023-11-30T07:21:54.578Z,84.12
2023-11-30T07:24:23.305Z,82.74
2023-11-30T07:26:52.013Z,82.10
2023-11-30T07:29:22.638Z,80.89
2023-11-30T07:31:55.472Z,82.06
2023-11-30T07:34:24.197Z,82.44
2023-11-30T07:36:53.307Z,83.17
2023-11-30T07:39:22.173Z,83.39
2023-11-30T07:41:51.513Z,82.81
2023-11-30T07:44:20.152Z,82.48
2023-11-30T07:46:49.048Z,82.87
2023-11-30T07:49:17.795Z,83.30
2023-11-30T07:51:46.413Z,82.98
2023-11-30T07:54:15.637Z,83.21
2023-11-30T07:56:44.353Z,83.68
2023-11-30T07:59:15.234Z,84.22
2023-11-30T08:01:44.879Z,84.00
2023-11-30T08:04:13.885Z,83.33
2023-11-30T08:06:42.822Z,83.92
2023-11-30T08:09:11.865Z,84.41
2023-11-30T08:11:42.121Z,83.72
2023-11-30T08:14:11.509Z,83.95
2023-11-30T08:16:41.983Z,84.28
2023-11-30T08:19:10.914Z,83.80
2023-11-30T08:21:42.885Z,84.07
2023-11-30T08:24:11.674Z,84.05
2023-11-30T08:26:40.478Z,84.07
2023-11-30T08:29:09.201Z,84.62
2023-11-30T08:31:39.149Z,85.07
2023-11-30T08:34:07.757Z,85.72
2023-11-30T08:36:36.425Z,86.01
2023-11-30T08:39:06.127Z,85.43
2023-11-30T08:41:34.942Z,86.12
2023-11-30T08:44:03.582Z,85.75
2023-11-30T08:46:35.103Z,85.77
2023-11-30T08:49:03.766Z,85.20
2023-11-30T08:51:32.496Z,85.83
2023-11-30T08:54:01.185Z,85.76
2023-11-30T08:56:29.833Z,86.04
2023-11-30T08:58:58.501Z,85.83
2023-11-30T09:01:27.161Z,86.37
2023-11-30T09:03:55.982Z,85.21
2023-11-30T09:06:26.377Z,85.71
2023-11-30T09:08:55.585Z,86.24
2023-11-30T09:11:24.210Z,86.12
2023-11-30T09:13:52.861Z,86.42
2023-11-30T09:16:21.634Z,86.84
2023-11-30T09:18:50.484Z,87.00
2023-11-30T09:21:19.445Z,86.44
2023-11-30T09:23:48.176Z,86.50
2023-11-30T09:26:16.852Z,85.67
2023-11-30T09:28:45.770Z,86.33
2023-11-30T09:31:14.500Z,85.70
2023-11-30T09:33:43.346Z,85.41
2023-11-30T09:36:12.809Z,85.16
2023-11-30T09:38:41.569Z,86.04
2023-11-30T09:41:14.739Z,86.11
2023-11-30T09:43:43.537Z,86.37
2023-11-30T09:46:12.234Z,85.85
2023-11-30T09:48:41.641Z,86.77
2023-11-30T09:51:13.594Z,86.67
2023-11-30T09:53:42.735Z,87.09
2023-11-30T09:56:12.334Z,87.49
2023-11-30T09:58:43.397Z,87.78
2023-11-30T10:01:12.171Z,90.01
2023-11-30T10:03:40.974Z,89.47
2023-11-30T10:06:10.348Z,89.67
2023-11-30T10:08:39.908Z,88.69
2023-11-30T10:11:13.083Z,88.78
2023-11-30T10:13:41.890Z,87.64
2023-11-30T10:16:13.517Z,87.41
2023-11-30T10:18:42.025Z,87.64
2023-11-30T10:21:11.003Z,87.53
2023-11-30T10:23:39.207Z,87.25
2023-11-30T10:26:10.447Z,86.95
2023-11-30T10:28:39.316Z,87.00
2023-11-30T10:31:08.239Z,87.73
2023-11-30T10:33:42.941Z,87.10
2023-11-30T10:36:12.191Z,87.32
2023-11-30T10:38:43.797Z,87.74
2023-11-30T10:41:21.295Z,87.28
2023-11-30T10:43:54.591Z,88.22
2023-11-30T10:46:28.829Z,88.89
2023-11-30T10:48:58.924Z,88.38
2023-11-30T10:51:27.924Z,88.65
2023-11-30T10:54:06.769Z,88.57
2023-11-30T10:56:35.891Z,88.34
2023-11-30T10:59:04.619Z,88.20
2023-11-30T11:01:38.141Z,88.88
2023-11-30T11:04:10.861Z,88.53
2023-11-30T11:06:39.324Z,88.34
2023-11-30T11:09:18.208Z,88.52
2023-11-30T11:11:47.074Z,89.28
2023-11-30T11:14:47.822Z,89.63
2023-11-30T11:17:16.576Z,89.12
2023-11-30T11:19:46.486Z,89.65
2023-11-30T11:22:29.111Z,88.57
2023-11-30T11:25:03.228Z,89.79
2023-11-30T11:27:34.021Z,88.39
2023-11-30T11:30:10.265Z,88.42
2023-11-30T11:32:39.175Z,87.99
2023-11-30T11:35:08.090Z,87.35
2023-11-30T11:37:36.951Z,87.31
2023-11-30T11:40:06.294Z,87.64
2023-11-30T11:42:35.164Z,87.87
2023-11-30T11:45:06.368Z,87.58
2023-11-30T11:47:35.200Z,87.81
2023-11-30T11:50:03.866Z,89.32
2023-11-30T11:52:33.237Z,89.61
2023-11-30T11:55:12.955Z,89.76
2023-11-30T11:57:46.180Z,89.53
2023-11-30T12:00:22.818Z,90.00
2023-11-30T12:02:52.453Z,89.95
2023-11-30T12:05:28.450Z,90.03
2023-11-30T12:07:58.602Z,89.75
2023-11-30T12:10:45.198Z,88.65
2023-11-30T12:13:15.934Z,88.09
2023-11-30T12:15:47.098Z,87.48
2023-11-30T12:18:17.657Z,87.03
2023-11-30T12:20:48.493Z,87.84
2023-11-30T12:23:18.603Z,87.48
2023-11-30T12:25:47.279Z,86.84
2023-11-30T12:28:15.969Z,87.64
2023-11-30T12:30:44.717Z,87.76
2023-11-30T12:33:15.239Z,86.48
2023-11-30T12:35:44.386Z,86.96
2023-11-30T12:38:14.161Z,87.79
2023-11-30T12:40:43.061Z,87.66
2023-11-30T12:43:11.708Z,87.88
2023-11-30T12:45:41.485Z,87.24
2023-11-30T12:48:10.278Z,87.60
2023-11-30T12:50:39.029Z,87.61
2023-11-30T12:53:07.919Z,86.93
2023-11-30T12:55:36.963Z,86.83
2023-11-30T12:58:05.741Z,87.30
2023-11-30T13:00:34.453Z,87.66
2023-11-30T13:03:03.113Z,86.95
2023-11-30T13:05:32.025Z,87.79
2023-11-30T13:08:00.972Z,87.95
2023-11-30T13:10:34.539Z,87.63
2023-11-30T13:13:04.100Z,87.90
2023-11-30T13:15:32.811Z,87.65
2023-11-30T13:18:01.709Z,87.28
2023-11-30T13:20:30.428Z,86.99
2023-11-30T13:22:59.376Z,87.92
2023-11-30T13:25:29.366Z,86.90
2023-11-30T13:27:58.201Z,87.36
2023-11-30T13:30:29.961Z,87.10
2023-11-30T13:33:00.387Z,86.94
2023-11-30T13:35:29.018Z,86.82
2023-11-30T13:38:00.922Z,86.73
2023-11-30T13:40:29.706Z,87.69
2023-11-30T13:42:59.592Z,88.30
2023-11-30T13:45:29.251Z,88.21
2023-11-30T13:47:58.482Z,87.33
2023-11-30T13:50:36.644Z,87.32
2023-11-30T13:53:06.197Z,87.79
2023-11-30T13:55:34.427Z,86.90
2023-11-30T13:58:03.072Z,87.16
2023-11-30T14:00:32.343Z,86.55
2023-11-30T14:03:02.308Z,87.02
2023-11-30T14:05:32.425Z,87.57
2023-11-30T14:08:01.410Z,87.28
2023-11-30T14:10:30.391Z,87.62
2023-11-30T14:12:59.148Z,86.04
2023-11-30T14:15:28.293Z,85.66
2023-11-30T14:17:57.022Z,85.45
2023-11-30T14:20:25.716Z,84.98
2023-11-30T14:22:54.562Z,84.04
2023-11-30T14:25:22.942Z,84.83
2023-11-30T14:27:51.750Z,84.84
2023-11-30T14:30:20.015Z,84.27
2023-11-30T14:32:49.150Z,84.85
2023-11-30T14:35:18.452Z,84.65
2023-11-30T14:37:47.123Z,85.50
2023-11-30T14:40:16.073Z,84.59
2023-11-30T14:42:44.990Z,84.95
2023-11-30T14:45:14.264Z,84.89
2023-11-30T14:47:44.680Z,84.40
2023-11-30T14:50:13.822Z,84.89
2023-11-30T14:52:46.735Z,85.39
2023-11-30T14:55:16.567Z,85.37
2023-11-30T14:57:45.410Z,85.84
2023-11-30T15:00:17.377Z,85.67
2023-11-30T15:02:46.329Z,85.13
2023-11-30T15:05:17.217Z,85.89
2023-11-30T15:07:46.030Z,85.23
2023-11-30T15:10:15.886Z,85.58
2023-11-30T15:12:44.915Z,84.98
2023-11-30T15:15:15.825Z,83.97
2023-11-30T15:17:50.790Z,84.75
2023-11-30T15:20:20.407Z,84.33
2023-11-30T15:22:51.290Z,85.08
2023-11-30T15:25:20.946Z,85.38
2023-11-30T15:27:51.374Z,85.19
2023-11-30T15:30:20.390Z,84.59
2023-11-30T15:32:49.151Z,84.69
2023-11-30T15:35:18.172Z,84.32
2023-11-30T15:37:51.311Z,84.38
2023-11-30T15:40:20.601Z,84.15
2023-11-30T15:42:49.364Z,84.61
2023-11-30T15:45:19.267Z,84.62
2023-11-30T15:47:47.974Z,84.68
2023-11-30T15:50:16.881Z,84.45
2023-11-30T15:52:45.864Z,84.80
2023-11-30T15:55:15.925Z,84.74
2023-11-30T15:57:46.817Z,84.56
2023-11-30T16:00:15.975Z,84.96
2023-11-30T16:02:47.589Z,84.91
2023-11-30T16:05:16.166Z,84.73
2023-11-30T16:07:45.780Z,84.64
2023-11-30T16:10:14.561Z,84.10
2023-11-30T16:12:43.345Z,83.96
2023-11-30T16:15:13.121Z,83.61
2023-11-30T16:17:42.212Z,84.05
2023-11-30T16:20:14.938Z,83.49
2023-11-30T16:22:44.156Z,83.72
2023-11-30T16:25:13.793Z,84.08
2023-11-30T16:27:46.446Z,83.63
2023-11-30T16:30:15.083Z,84.07
2023-11-30T16:32:43.944Z,83.78
2023-11-30T16:35:12.798Z,83.93
2023-11-30T16:37:41.683Z,84.34
2023-11-30T16:40:12.213Z,83.86
2023-11-30T16:42:41.135Z,83.74
2023-11-30T16:45:10.383Z,83.66
2023-11-30T16:47:40.698Z,84.11
2023-11-30T16:50:11.321Z,83.44
2023-11-30T16:52:41.035Z,83.25
2023-11-30T16:55:10.134Z,83.55
2023-11-30T16:57:38.850Z,82.90
2023-11-30T17:00:09.531Z,81.99
2023-11-30T17:02:38.280Z,81.70
2023-11-30T17:05:07.331Z,81.97
2023-11-30T17:07:36.235Z,82.45
2023-11-30T17:10:05.588Z,81.53
2023-11-30T17:12:35.461Z,82.25
2023-11-30T17:15:06.497Z,82.59
2023-11-30T17:17:35.289Z,82.63
2023-11-30T17:20:03.986Z,81.97
2023-11-30T17:22:32.890Z,82.02
2023-11-30T17:25:01.769Z,81.10
2023-11-30T17:27:30.735Z,81.56
2023-11-30T17:29:59.044Z,81.55
2023-11-30T17:32:27.934Z,81.18
2023-11-30T17:34:56.742Z,81.86
2023-11-30T17:37:25.526Z,82.02
2023-11-30T17:39:54.275Z,81.78
2023-11-30T17:42:23.858Z,81.27
2023-11-30T17:44:52.516Z,81.83
2023-11-30T17:47:22.453Z,80.28
2023-11-30T17:49:51.194Z,79.68
2023-11-30T17:52:19.824Z,78.97
2023-11-30T17:54:48.518Z,78.67
2023-11-30T17:57:17.455Z,78.58
2023-11-30T17:59:45.529Z,78.32
2023-11-30T18:02:14.245Z,77.77
2023-11-30T18:04:42.905Z,75.88
2023-11-30T18:07:12.777Z,75.73
2023-11-30T18:09:41.815Z,75.31
2023-11-30T18:12:10.705Z,74.16
2023-11-30T18:14:40.020Z,73.37
2023-11-30T18:17:08.980Z,73.90
2023-11-30T18:19:37.751Z,75.59
2023-11-30T18:22:06.784Z,74.29
2023-11-30T18:24:35.649Z,73.02
2023-11-30T18:27:05.334Z,72.72
2023-11-30T18:29:33.974Z,73.38
2023-11-30T18:32:02.885Z,72.71
2023-11-30T18:34:31.051Z,72.42
2023-11-30T18:37:00.053Z,73.13
2023-11-30T18:39:28.857Z,71.96
2023-11-30T18:41:57.947Z,72.02
2023-11-30T18:44:27.408Z,70.82
2023-11-30T18:46:56.983Z,69.77
2023-11-30T18:49:26.558Z,71.07
2023-11-30T18:51:55.340Z,71.15
2023-11-30T18:54:24.231Z,70.23
2023-11-30T18:56:52.833Z,68.86
2023-11-30T18:59:21.595Z,68.38
2023-11-30T19:01:50.728Z,70.04
2023-11-30T19:04:19.553Z,68.57
2023-11-30T19:06:48.505Z,68.92
2023-11-30T19:09:17.395Z,67.18
2023-11-30T19:11:49.653Z,67.89
2023-11-30T19:14:22.376Z,67.38
2023-11-30T19:16:51.017Z,67.60
2023-11-30T19:19:20.333Z,68.30
2023-11-30T19:21:49.152Z,67.35
2023-11-30T19:24:18.548Z,67.61
2023-11-30T19:26:47.218Z,68.68
2023-11-30T19:29:16.026Z,67.76
2023-11-30T19:31:44.750Z,66.86
2023-11-30T19:34:14.351Z,65.51
2023-11-30T19:36:43.503Z,65.90
2023-11-30T19:39:12.284Z,65.63
2023-11-30T19:41:45.296Z,64.71
2023-11-30T19:44:15.781Z,64.16
2023-11-30T19:46:49.809Z,64.88
2023-11-30T19:49:18.639Z,65.14
2023-11-30T19:51:47.335Z,65.85
2023-11-30T19:54:16.135Z,65.29
2023-11-30T19:56:45.322Z,66.12
2023-11-30T19:59:14.752Z,65.97
2023-11-30T20:01:43.138Z,66.96
2023-11-30T20:04:13.649Z,67.15
2023-11-30T20:06:41.933Z,66.48
2023-11-30T20:09:11.128Z,66.71
2023-11-30T20:11:39.802Z,67.37
2023-11-30T20:14:10.127Z,66.30
2023-11-30T20:16:43.330Z,67.91
2023-11-30T20:19:12.513Z,68.29
2023-11-30T20:21:41.167Z,67.88
2023-11-30T20:24:10.750Z,67.64
2023-11-30T20:26:46.011Z,67.23
2023-11-30T20:29:15.516Z,67.73
2023-11-30T20:31:44.370Z,67.57
2023-11-30T20:34:13.107Z,66.82
2023-11-30T20:36:41.946Z,66.55
2023-11-30T20:39:10.663Z,67.27
2023-11-30T20:41:39.312Z,67.15
2023-11-30T20:44:07.964Z,67.53
2023-11-30T20:46:36.637Z,67.87
2023-11-30T20:49:05.364Z,67.73
2023-11-30T20:51:34.102Z,67.92
2023-11-30T20:54:05.609Z,67.74
2023-11-30T20:56:35.466Z,67.90
2023-11-30T20:59:04.073Z,67.23
2023-11-30T21:01:32.530Z,67.17
2023-11-30T21:04:01.380Z,67.66
2023-11-30T21:06:30.268Z,67.98
2023-11-30T21:08:59.131Z,67.99
2023-11-30T21:11:27.556Z,66.79
2023-11-30T21:13:56.174Z,67.37
2023-11-30T21:16:24.807Z,67.79
2023-11-30T21:18:52.943Z,67.29
2023-11-30T21:21:21.679Z,67.39
2023-11-30T21:23:50.357Z,68.57
2023-11-30T21:26:19.085Z,67.68
2023-11-30T21:28:47.827Z,68.34
2023-11-30T21:31:16.542Z,68.34
2023-11-30T21:33:45.504Z,68.24
2023-11-30T21:36:16.754Z,68.88
2023-11-30T21:38:45.411Z,68.06
2023-11-30T21:41:17.816Z,68.95
2023-11-30T21:43:46.990Z,68.68
2023-11-30T21:46:15.937Z,68.41
2023-11-30T21:48:44.898Z,68.98
2023-11-30T21:51:13.827Z,69.31
2023-11-30T21:53:57.173Z,69.34
2023-11-30T21:56:26.073Z,70.00
2023-11-30T21:58:54.950Z,70.25
2023-11-30T22:01:23.866Z,70.40
2023-11-30T22:03:52.928Z,69.61
2023-11-30T22:06:21.691Z,70.96
2023-11-30T22:08:53.350Z,70.45
2023-11-30T22:11:22.271Z,71.25
2023-11-30T22:13:51.048Z,71.08
2023-11-30T22:16:26.239Z,70.89
2023-11-30T22:18:58.323Z,71.63
2023-11-30T22:21:27.175Z,71.73
2023-11-30T22:23:55.854Z,71.35
2023-11-30T22:26:26.602Z,71.73
2023-11-30T22:28:55.410Z,72.07
2023-11-30T22:31:24.429Z,72.87
2023-11-30T22:33:53.152Z,73.09
2023-11-30T22:36:21.944Z,73.19
2023-11-30T22:38:50.609Z,73.66
2023-11-30T22:41:19.290Z,72.89
2023-11-30T22:43:47.999Z,73.67
2023-11-30T22:46:20.495Z,73.62
2023-11-30T22:48:51.100Z,74.75
2023-11-30T22:51:20.219Z,75.23
2023-11-30T22:53:48.936Z,74.84
2023-11-30T22:56:19.888Z,75.28
2023-11-30T22:58:49.465Z,75.98
2023-11-30T23:01:18.820Z,76.65
2023-11-30T23:03:48.007Z,76.81
2023-11-30T23:06:17.148Z,77.33
2023-11-30T23:08:46.219Z,76.88
2023-11-30T23:11:14.989Z,76.78
2023-11-30T23:13:43.741Z,77.81
2023-11-30T23:16:13.880Z,77.69
2023-11-30T23:18:43.061Z,78.33
2023-11-30T23:21:11.758Z,79.02
2023-11-30T23:23:40.367Z,78.85
2023-11-30T23:26:08.769Z,78.30
2023-11-30T23:28:37.464Z,79.58
2023-11-30T23:31:06.464Z,79.26
2023-11-30T23:33:35.210Z,79.71
2023-11-30T23:36:04.001Z,80.23
2023-11-30T23:38:32.653Z,80.35
2023-11-30T23:41:05.570Z,80.60
2023-11-30T23:43:34.215Z,79.93
2023-11-30T23:46:05.696Z,80.82
2023-11-30T23:48:34.533Z,80.45
2023-11-30T23:51:03.224Z,80.70
2023-11-30T23:53:31.553Z,81.26
2023-11-30T23:56:00.270Z,80.93
2023-11-30T23:58:28.999Z,81.25
